createdAt,value
2019-04-13T00:00:52.756Z,4.40
2019-04-13T00:03:24.071Z,4.40
2019-04-13T00:06:25.427Z,4.40
2019-04-13T00:08:55.731Z,4.40
2019-04-13T00:11:44.910Z,4.30
2019-04-13T00:14:15.252Z,4.30
2019-04-13T00:16:45.508Z,4.20
2019-04-13T00:19:15.882Z,4.20
2019-04-13T00:21:46.243Z,4.30
2019-04-13T00:24:16.785Z,4.30
2019-04-13T00:26:47.173Z,4.30
2019-04-13T00:29:17.874Z,4.20
2019-04-13T00:31:48.121Z,4.20
2019-04-13T00:34:18.371Z,4.20
2019-04-13T00:36:48.726Z,4.20
2019-04-13T00:39:19.141Z,4.20
2019-04-13T00:41:49.721Z,4.20
2019-04-13T00:44:20.003Z,4.20
2019-04-13T00:46:50.354Z,4.20
2019-04-13T00:49:20.597Z,4.20
2019-04-13T00:51:51.010Z,4.20
2019-04-13T00:54:21.510Z,4.20
2019-04-13T00:56:52.596Z,4.20
2019-04-13T00:59:22.859Z,4.20
2019-04-13T01:01:53.157Z,4.20
2019-04-13T01:04:23.518Z,4.10
2019-04-13T01:06:53.756Z,4.00
2019-04-13T01:09:25.725Z,4.00
2019-04-13T01:11:56.247Z,4.00
2019-04-13T01:14:26.546Z,4.10
2019-04-13T01:16:58.770Z,4.10
2019-04-13T01:19:30.675Z,4.10
2019-04-13T01:22:00.967Z,4.10
2019-04-13T01:24:31.382Z,4.10
2019-04-13T01:27:01.689Z,4.00
2019-04-13T01:29:31.959Z,4.00
2019-04-13T01:32:02.309Z,3.90
2019-04-13T01:34:34.724Z,3.90
2019-04-13T01:37:05.269Z,3.90
2019-04-13T01:39:35.655Z,3.90
2019-04-13T01:42:07.498Z,3.80
2019-04-13T01:44:37.878Z,3.80
2019-04-13T01:47:08.081Z,3.80
2019-04-13T01:49:39.054Z,3.80
2019-04-13T01:52:09.338Z,3.80
2019-04-13T01:54:39.588Z,3.80
2019-04-13T01:57:11.406Z,3.80
2019-04-13T01:59:42.261Z,3.70
2019-04-13T02:02:37.711Z,3.80
2019-04-13T02:05:26.683Z,3.80
2019-04-13T02:08:04.630Z,3.80
2019-04-13T02:10:47.957Z,3.80
2019-04-13T02:13:18.247Z,3.80
2019-04-13T02:15:48.800Z,3.70
2019-04-13T02:18:19.016Z,3.70
2019-04-13T02:20:49.579Z,3.70
2019-04-13T02:23:19.823Z,3.70
2019-04-13T02:25:50.661Z,3.70
2019-04-13T02:28:20.927Z,3.60
2019-04-13T02:30:51.487Z,3.60
2019-04-13T02:33:22.136Z,3.50
2019-04-13T02:35:52.763Z,3.50
2019-04-13T02:38:23.177Z,3.40
2019-04-13T02:40:53.850Z,3.40
2019-04-13T02:43:24.271Z,3.40
2019-04-13T02:45:54.490Z,3.30
2019-04-13T02:48:24.770Z,3.30
2019-04-13T02:50:55.082Z,3.20
2019-04-13T02:53:26.987Z,3.20
2019-04-13T02:55:57.289Z,3.20
2019-04-13T02:58:27.515Z,3.20
2019-04-13T03:00:57.896Z,3.20
2019-04-13T03:03:28.098Z,3.10
2019-04-13T03:05:58.339Z,3.10
2019-04-13T03:08:28.769Z,3.10
2019-04-13T03:10:59.132Z,3.00
2019-04-13T03:13:29.706Z,3.00
2019-04-13T03:16:19.126Z,3.00
2019-04-13T03:19:08.341Z,2.90
2019-04-13T03:21:38.631Z,3.00
2019-04-13T03:24:10.158Z,3.00
2019-04-13T03:26:42.293Z,2.90
2019-04-13T03:29:12.813Z,3.00
2019-04-13T03:31:43.532Z,2.90
2019-04-13T03:34:13.849Z,3.00
2019-04-13T03:36:44.198Z,2.90
2019-04-13T03:39:14.430Z,3.00
2019-04-13T03:41:44.703Z,3.00
2019-04-13T03:44:14.999Z,3.00
2019-04-13T03:46:45.276Z,3.10
2019-04-13T03:49:15.615Z,3.00
2019-04-13T03:51:47.760Z,3.00
2019-04-13T03:54:18.489Z,3.00
2019-04-13T03:56:50.468Z,3.00
2019-04-13T03:59:20.904Z,3.00
2019-04-13T04:01:51.128Z,2.90
2019-04-13T04:04:21.653Z,2.90
2019-04-13T04:06:51.997Z,2.90
2019-04-13T04:09:22.717Z,2.90
2019-04-13T04:11:53.096Z,2.90
2019-04-13T04:14:23.458Z,2.90
2019-04-13T04:16:53.694Z,2.90
2019-04-13T04:19:23.968Z,3.00
2019-04-13T04:21:54.270Z,3.00
2019-04-13T04:24:24.586Z,3.00
2019-04-13T04:26:54.863Z,3.00
2019-04-13T04:29:25.134Z,3.10
2019-04-13T04:31:55.381Z,3.00
2019-04-13T04:34:25.692Z,2.90
2019-04-13T04:36:57.004Z,2.90
2019-04-13T04:39:27.575Z,2.80
2019-04-13T04:41:58.015Z,2.80
2019-04-13T04:44:28.678Z,2.80
2019-04-13T04:46:59.030Z,2.80
2019-04-13T04:49:29.380Z,2.80
2019-04-13T04:51:59.575Z,2.80
2019-04-13T04:54:29.828Z,2.80
2019-04-13T04:57:00.091Z,2.80
2019-04-13T04:59:30.468Z,2.80
2019-04-13T05:02:00.795Z,2.80
2019-04-13T05:04:31.222Z,2.80
2019-04-13T05:07:01.663Z,2.80
2019-04-13T05:09:31.874Z,2.90
2019-04-13T05:12:04.661Z,3.00
2019-04-13T05:14:35.313Z,3.00
2019-04-13T05:17:05.944Z,3.00
2019-04-13T05:19:36.455Z,3.10
2019-04-13T05:22:07.032Z,3.10
2019-04-13T05:24:37.398Z,3.20
2019-04-13T05:27:08.045Z,3.20
2019-04-13T05:29:38.447Z,3.20
2019-04-13T05:32:08.851Z,3.20
2019-04-13T05:34:39.192Z,3.30
2019-04-13T05:37:09.850Z,3.30
2019-04-13T05:39:40.104Z,3.30
2019-04-13T05:42:10.585Z,3.40
2019-04-13T05:44:41.243Z,3.40
2019-04-13T05:47:11.681Z,3.50
2019-04-13T05:49:42.067Z,3.50
2019-04-13T05:52:12.328Z,3.70
2019-04-13T05:54:42.646Z,3.70
2019-04-13T05:57:13.399Z,3.70
2019-04-13T05:59:43.864Z,3.80
2019-04-13T06:02:14.202Z,3.80
2019-04-13T06:04:46.076Z,3.90
2019-04-13T06:07:16.316Z,4.00
2019-04-13T06:09:46.918Z,4.10
2019-04-13T06:12:18.381Z,4.10
2019-04-13T06:14:48.882Z,4.20
2019-04-13T06:17:21.160Z,4.20
2019-04-13T06:19:51.277Z,4.30
2019-04-13T06:22:24.633Z,4.40
2019-04-13T06:24:59.243Z,4.40
2019-04-13T06:27:29.609Z,4.50
2019-04-13T06:30:04.077Z,4.50
2019-04-13T06:32:41.970Z,4.50
2019-04-13T06:35:23.317Z,4.60
2019-04-13T06:37:52.085Z,4.70
2019-04-13T06:40:22.567Z,4.80
2019-04-13T06:42:54.795Z,4.80
2019-04-13T06:45:26.192Z,4.90
2019-04-13T06:48:00.150Z,5.10
2019-04-13T06:50:29.701Z,5.20
2019-04-13T06:53:00.133Z,5.30
2019-04-13T06:55:30.354Z,5.40
2019-04-13T06:58:00.626Z,5.50
2019-04-13T07:00:30.944Z,5.40
2019-04-13T07:03:01.351Z,5.50
2019-04-13T07:05:31.910Z,5.50
2019-04-13T07:08:13.342Z,5.50
2019-04-13T07:11:01.290Z,5.60
2019-04-13T07:14:05.778Z,5.60
2019-04-13T07:16:55.101Z,5.50
2019-04-13T07:19:26.921Z,5.50
2019-04-13T07:21:58.554Z,5.50
2019-04-13T07:24:29.637Z,5.60
2019-04-13T07:26:59.894Z,5.70
2019-04-13T07:29:30.234Z,5.60
2019-04-13T07:32:01.686Z,5.50
2019-04-13T07:34:34.056Z,5.70
2019-04-13T07:37:04.681Z,5.60
2019-04-13T07:39:35.124Z,5.60
2019-04-13T07:42:05.675Z,5.70
2019-04-13T07:44:47.152Z,6.00
2019-04-13T07:47:42.668Z,6.20
2019-04-13T07:50:30.779Z,6.40
2019-04-13T07:53:03.535Z,6.20
2019-04-13T07:55:36.379Z,6.10
2019-04-13T07:58:06.504Z,6.10
2019-04-13T08:00:36.867Z,6.10
2019-04-13T08:03:07.205Z,6.20
2019-04-13T08:05:37.499Z,6.10
2019-04-13T08:08:09.370Z,6.10
2019-04-13T08:10:39.691Z,6.10
2019-04-13T08:13:10.007Z,6.10
2019-04-13T08:15:40.385Z,6.30
2019-04-13T08:18:13.217Z,6.60
2019-04-13T08:20:43.473Z,6.80
2019-04-13T08:23:13.778Z,6.70
2019-04-13T08:25:44.041Z,6.80
2019-04-13T08:28:15.941Z,6.60
2019-04-13T08:30:49.087Z,6.40
2019-04-13T08:33:18.577Z,6.30
2019-04-13T08:35:48.896Z,6.40
2019-04-13T08:38:19.254Z,6.40
2019-04-13T08:40:49.570Z,6.50
2019-04-13T08:43:19.904Z,6.60
2019-04-13T08:45:50.190Z,6.50
2019-04-13T08:48:20.744Z,6.50
2019-04-13T08:50:51.228Z,6.30
2019-04-13T08:53:21.591Z,6.30
2019-04-13T08:55:51.851Z,6.30
2019-04-13T08:58:22.191Z,6.10
2019-04-13T09:00:52.499Z,5.90
2019-04-13T09:03:22.949Z,5.80
2019-04-13T09:05:54.302Z,5.90
2019-04-13T09:08:29.520Z,6.00
2019-04-13T09:10:57.844Z,6.00
2019-04-13T09:13:31.201Z,6.00
2019-04-13T09:16:00.472Z,6.10
2019-04-13T09:18:48.331Z,6.00
2019-04-13T09:21:38.729Z,6.10
2019-04-13T09:24:08.969Z,5.80
2019-04-13T09:26:39.304Z,5.80
2019-04-13T09:29:09.579Z,6.00
2019-04-13T09:31:40.020Z,6.10
2019-04-13T09:34:25.937Z,6.60
2019-04-13T09:36:42.263Z,6.60
2019-04-13T09:39:12.567Z,6.80
2019-04-13T09:41:42.883Z,6.70
2019-04-13T09:44:25.846Z,6.80
2019-04-13T09:46:56.811Z,7.00
2019-04-13T09:49:27.306Z,7.20
2019-04-13T09:52:00.199Z,7.10
2019-04-13T09:54:30.499Z,7.00
2019-04-13T09:57:00.783Z,6.80
2019-04-13T09:59:31.103Z,6.70
2019-04-13T10:02:01.337Z,6.60
2019-04-13T10:04:31.748Z,6.50
2019-04-13T10:07:02.163Z,6.40
2019-04-13T10:09:32.545Z,6.30
2019-04-13T10:12:11.893Z,6.20
2019-04-13T10:15:01.177Z,6.60
2019-04-13T10:17:54.604Z,7.20
2019-04-13T10:20:26.584Z,7.50
2019-04-13T10:22:56.949Z,7.80
2019-04-13T10:25:27.314Z,8.40
2019-04-13T10:27:57.631Z,8.60
2019-04-13T10:30:27.874Z,8.90
2019-04-13T10:32:58.384Z,9.00
2019-04-13T10:35:47.851Z,9.00
2019-04-13T10:38:18.258Z,8.90
2019-04-13T10:40:48.517Z,9.10
2019-04-13T10:43:18.834Z,9.10
2019-04-13T10:46:08.254Z,9.30
2019-04-13T10:49:00.653Z,9.40
2019-04-13T10:51:50.615Z,9.30
2019-04-13T10:54:20.859Z,9.30
2019-04-13T10:56:51.174Z,9.20
2019-04-13T10:59:23.131Z,8.90
2019-04-13T11:01:53.371Z,8.80
2019-04-13T11:04:23.678Z,8.50
2019-04-13T11:06:53.977Z,8.20
2019-04-13T11:09:28.390Z,8.00
2019-04-13T11:11:56.249Z,7.90
2019-04-13T11:14:26.530Z,7.80
2019-04-13T11:16:58.752Z,7.80
2019-04-13T11:19:29.560Z,7.70
2019-04-13T11:21:59.823Z,7.80
2019-04-13T11:24:30.147Z,7.80
2019-04-13T11:27:00.487Z,7.80
2019-04-13T11:29:30.761Z,7.80
2019-04-13T11:32:01.018Z,7.60
2019-04-13T11:34:32.377Z,7.50
2019-04-13T11:37:05.457Z,7.30
2019-04-13T11:39:37.412Z,7.20
2019-04-13T11:42:24.254Z,7.00
2019-04-13T11:45:34.628Z,6.60
2019-04-13T11:48:26.942Z,6.40
2019-04-13T11:51:00.590Z,6.00
2019-04-13T11:53:31.926Z,5.80
2019-04-13T11:56:04.681Z,5.60
2019-04-13T11:58:34.233Z,5.50
2019-04-13T12:01:41.812Z,5.50
2019-04-13T12:04:36.853Z,5.40
2019-04-13T12:07:24.602Z,5.10
2019-04-13T12:10:32.101Z,4.80
2019-04-13T12:13:36.717Z,4.70
2019-04-13T12:16:20.843Z,4.80
2019-04-13T12:18:59.496Z,5.10
2019-04-13T12:22:05.322Z,5.50
2019-04-13T12:24:35.906Z,5.90
2019-04-13T12:27:06.246Z,6.30
2019-04-13T12:29:39.302Z,6.40
2019-04-13T12:32:17.286Z,6.40
2019-04-13T12:34:47.589Z,6.20
2019-04-13T12:37:17.868Z,6.10
2019-04-13T12:40:01.794Z,6.10
2019-04-13T12:42:21.930Z,5.90
2019-04-13T12:44:52.303Z,5.90
2019-04-13T12:47:23.058Z,6.00
2019-04-13T12:49:53.478Z,6.10
2019-04-13T12:52:23.892Z,6.40
2019-04-13T12:54:55.311Z,6.60
2019-04-13T12:57:25.718Z,6.90
2019-04-13T12:59:56.286Z,7.00
2019-04-13T13:02:39.399Z,7.20
2019-04-13T13:05:12.212Z,7.40
2019-04-13T13:07:42.599Z,7.60
2019-04-13T13:10:15.327Z,7.60
2019-04-13T13:12:46.334Z,7.70
2019-04-13T13:15:16.692Z,7.80
2019-04-13T13:17:48.059Z,7.80
2019-04-13T13:20:19.331Z,7.80
2019-04-13T13:22:49.881Z,7.80
2019-04-13T13:25:21.704Z,7.60
2019-04-13T13:27:52.422Z,7.30
2019-04-13T13:30:22.726Z,7.00
2019-04-13T13:32:53.271Z,6.60
2019-04-13T13:35:23.626Z,6.40
2019-04-13T13:37:54.240Z,6.30
2019-04-13T13:40:31.122Z,6.30
2019-04-13T13:42:57.653Z,6.40
2019-04-13T13:45:27.942Z,6.40
2019-04-13T13:48:01.687Z,6.50
2019-04-13T13:50:30.642Z,6.70
2019-04-13T13:53:00.944Z,6.90
2019-04-13T13:55:31.410Z,7.10
2019-04-13T13:58:14.659Z,7.40
2019-04-13T14:01:43.150Z,7.70
2019-04-13T14:04:11.576Z,7.90
2019-04-13T14:06:41.917Z,8.00
2019-04-13T14:09:12.268Z,7.90
2019-04-13T14:11:44.316Z,7.80
2019-04-13T14:14:14.776Z,7.80
2019-04-13T14:16:47.553Z,7.80
2019-04-13T14:19:17.222Z,7.60
2019-04-13T14:21:47.692Z,7.50
2019-04-13T14:24:20.742Z,7.40
2019-04-13T14:26:51.015Z,7.30
2019-04-13T14:29:21.521Z,7.20
2019-04-13T14:31:51.812Z,7.10
2019-04-13T14:34:22.533Z,7.00
2019-04-13T14:36:53.004Z,7.00
2019-04-13T14:39:23.358Z,6.90
2019-04-13T14:41:53.623Z,6.90
2019-04-13T14:44:25.566Z,7.10
2019-04-13T14:46:55.987Z,7.30
2019-04-13T14:49:28.275Z,7.40
2019-04-13T14:51:58.425Z,7.30
2019-04-13T14:54:28.671Z,7.20
2019-04-13T14:56:58.951Z,7.10
2019-04-13T14:59:29.387Z,7.00
2019-04-13T15:01:59.917Z,6.80
2019-04-13T15:04:30.258Z,6.80
2019-04-13T15:07:00.534Z,6.70
2019-04-13T15:09:30.861Z,6.70
2019-04-13T15:12:01.129Z,6.60
2019-04-13T15:14:32.526Z,6.60
2019-04-13T15:17:05.288Z,6.40
2019-04-13T15:19:41.519Z,6.40
2019-04-13T15:22:11.517Z,6.30
2019-04-13T15:24:39.258Z,6.30
2019-04-13T15:27:09.677Z,6.30
2019-04-13T15:29:40.568Z,6.20
2019-04-13T15:32:12.828Z,6.10
2019-04-13T15:34:44.757Z,6.00
2019-04-13T15:37:15.352Z,6.00
2019-04-13T15:39:47.423Z,6.10
2019-04-13T15:42:23.815Z,6.20
2019-04-13T15:44:52.627Z,6.30
2019-04-13T15:47:25.233Z,6.40
2019-04-13T15:49:54.741Z,6.50
2019-04-13T15:52:26.096Z,6.70
2019-04-13T15:54:57.810Z,6.90
2019-04-13T15:57:28.656Z,7.20
2019-04-13T16:00:00.252Z,7.40
2019-04-13T16:02:31.352Z,7.60
2019-04-13T16:05:02.696Z,7.70
2019-04-13T16:07:34.772Z,7.90
2019-04-13T16:10:14.372Z,7.80
2019-04-13T16:12:49.423Z,7.90
2019-04-13T16:15:22.850Z,8.00
2019-04-13T16:17:53.882Z,8.10
2019-04-13T16:20:25.123Z,8.30
2019-04-13T16:22:55.774Z,8.30
2019-04-13T16:25:28.822Z,8.00
2019-04-13T16:28:18.071Z,7.60
2019-04-13T16:31:18.456Z,7.50
2019-04-13T16:34:09.348Z,7.40
2019-04-13T16:36:56.162Z,7.10
2019-04-13T16:39:26.551Z,6.80
2019-04-13T16:42:21.501Z,6.50
2019-04-13T16:45:11.127Z,6.30
2019-04-13T16:48:00.497Z,6.10
2019-04-13T16:50:38.895Z,6.00
2019-04-13T16:53:37.306Z,5.90
2019-04-13T16:56:17.336Z,5.80
2019-04-13T16:59:07.226Z,5.80
2019-04-13T17:02:02.522Z,5.80
2019-04-13T17:04:37.989Z,5.80
2019-04-13T17:07:09.161Z,5.90
2019-04-13T17:09:39.647Z,5.80
2019-04-13T17:12:19.352Z,5.90
2019-04-13T17:14:44.230Z,6.00
2019-04-13T17:17:15.772Z,6.10
2019-04-13T17:20:05.676Z,6.00
2019-04-13T17:22:54.166Z,6.10
2019-04-13T17:25:43.544Z,6.10
2019-04-13T17:28:35.088Z,6.00
2019-04-13T17:31:18.366Z,5.90
2019-04-13T17:33:59.151Z,5.90
2019-04-13T17:36:29.615Z,6.00
2019-04-13T17:39:00.037Z,6.00
2019-04-13T17:41:42.498Z,6.00
2019-04-13T17:44:24.366Z,6.00
2019-04-13T17:47:18.016Z,5.90
2019-04-13T17:50:20.014Z,5.90
2019-04-13T17:53:06.263Z,5.80
2019-04-13T17:55:55.539Z,5.70
2019-04-13T17:58:52.421Z,5.60
2019-04-13T18:01:58.181Z,5.50
2019-04-13T18:04:46.538Z,5.40
2019-04-13T18:07:34.398Z,5.40
2019-04-13T18:10:26.417Z,5.30
2019-04-13T18:13:31.603Z,5.20
2019-04-13T18:16:11.351Z,5.10
2019-04-13T18:18:49.864Z,5.10
2019-04-13T18:21:20.312Z,5.10
2019-04-13T18:23:50.694Z,5.10
2019-04-13T18:26:21.116Z,5.00
2019-04-13T18:28:52.193Z,5.00
2019-04-13T18:31:22.953Z,5.00
2019-04-13T18:33:53.469Z,4.90
2019-04-13T18:36:25.578Z,4.90
2019-04-13T18:38:56.171Z,4.80
2019-04-13T18:41:28.735Z,4.80
2019-04-13T18:44:00.586Z,4.70
2019-04-13T18:46:31.871Z,4.70
2019-04-13T18:49:03.224Z,4.60
2019-04-13T18:51:35.583Z,4.60
2019-04-13T18:54:07.405Z,4.60
2019-04-13T18:56:39.928Z,4.60
2019-04-13T18:59:10.862Z,4.50
2019-04-13T19:01:41.277Z,4.50
2019-04-13T19:04:11.873Z,4.50
2019-04-13T19:06:43.886Z,4.50
2019-04-13T19:09:14.353Z,4.50
2019-04-13T19:11:44.896Z,4.50
2019-04-13T19:14:15.195Z,4.50
2019-04-13T19:16:45.664Z,4.50
2019-04-13T19:19:16.151Z,4.50
2019-04-13T19:21:46.622Z,4.40
2019-04-13T19:24:16.971Z,4.40
2019-04-13T19:26:47.313Z,4.40
2019-04-13T19:29:17.705Z,4.40
2019-04-13T19:31:49.367Z,4.30
2019-04-13T19:34:22.425Z,4.20
2019-04-13T19:36:54.335Z,4.30
2019-04-13T19:39:25.928Z,4.20
2019-04-13T19:41:56.323Z,4.20
2019-04-13T19:44:38.097Z,4.20
2019-04-13T19:47:08.492Z,4.10
2019-04-13T19:49:39.028Z,4.00
2019-04-13T19:52:14.443Z,4.00
2019-04-13T19:54:44.947Z,4.00
2019-04-13T19:57:15.294Z,4.00
2019-04-13T19:59:45.752Z,4.00
2019-04-13T20:02:18.729Z,4.00
2019-04-13T20:04:50.842Z,4.00
2019-04-13T20:07:21.331Z,4.10
2019-04-13T20:09:51.666Z,4.20
2019-04-13T20:12:22.073Z,4.10
2019-04-13T20:14:52.459Z,4.20
2019-04-13T20:17:22.727Z,4.10
2019-04-13T20:19:52.991Z,4.00
2019-04-13T20:22:23.282Z,3.90
2019-04-13T20:24:53.523Z,3.90
2019-04-13T20:27:23.958Z,3.80
2019-04-13T20:29:55.412Z,3.80
2019-04-13T20:32:25.922Z,3.70
2019-04-13T20:34:57.634Z,3.70
2019-04-13T20:37:31.544Z,3.70
2019-04-13T20:40:07.731Z,3.70
2019-04-13T20:42:39.428Z,3.60
2019-04-13T20:45:11.145Z,3.60
2019-04-13T20:47:41.682Z,3.50
2019-04-13T20:50:12.341Z,3.50
2019-04-13T20:52:43.749Z,3.40
2019-04-13T20:55:14.497Z,3.40
2019-04-13T20:57:46.130Z,3.40
2019-04-13T21:00:16.411Z,3.40
2019-04-13T21:02:46.775Z,3.40
2019-04-13T21:05:18.515Z,3.40
2019-04-13T21:07:48.964Z,3.40
2019-04-13T21:10:20.300Z,3.40
2019-04-13T21:12:50.626Z,3.40
2019-04-13T21:15:21.075Z,3.40
2019-04-13T21:17:51.453Z,3.40
2019-04-13T21:20:22.916Z,3.40
2019-04-13T21:23:13.019Z,3.30
2019-04-13T21:25:43.624Z,3.30
2019-04-13T21:28:14.993Z,3.30
2019-04-13T21:30:46.654Z,3.30
2019-04-13T21:33:17.114Z,3.30
2019-04-13T21:35:47.463Z,3.30
2019-04-13T21:38:30.101Z,3.40
2019-04-13T21:41:00.591Z,3.40
2019-04-13T21:43:33.055Z,3.40
2019-04-13T21:46:03.047Z,3.40
2019-04-13T21:48:34.335Z,3.40
2019-04-13T21:51:20.444Z,3.40
2019-04-13T21:54:00.327Z,3.30
2019-04-13T21:56:31.410Z,3.30
2019-04-13T21:59:03.985Z,3.30
2019-04-13T22:02:14.114Z,3.30
2019-04-13T22:04:45.870Z,3.20
2019-04-13T22:07:16.407Z,3.20
2019-04-13T22:09:47.829Z,3.20
2019-04-13T22:12:19.965Z,3.10
2019-04-13T22:14:56.985Z,3.10
2019-04-13T22:17:22.644Z,3.10
2019-04-13T22:19:53.117Z,3.10
2019-04-13T22:22:24.918Z,3.10
2019-04-13T22:24:55.478Z,3.10
2019-04-13T22:27:27.408Z,3.20
2019-04-13T22:29:57.743Z,3.20
2019-04-13T22:32:39.323Z,3.20
2019-04-13T22:35:34.960Z,3.20
2019-04-13T22:38:06.541Z,3.20
2019-04-13T22:40:38.927Z,3.30
2019-04-13T22:43:10.953Z,3.20
2019-04-13T22:45:42.508Z,3.30
2019-04-13T22:48:42.122Z,3.30
2019-04-13T22:51:25.186Z,3.20
2019-04-13T22:54:32.583Z,3.20
2019-04-13T22:57:41.146Z,3.20
2019-04-13T23:00:17.233Z,3.30
2019-04-13T23:02:51.876Z,3.20
2019-04-13T23:05:24.201Z,3.10
2019-04-13T23:07:56.741Z,3.00
2019-04-13T23:10:27.116Z,3.00
2019-04-13T23:12:57.506Z,2.90
2019-04-13T23:15:33.118Z,2.90
2019-04-13T23:17:59.836Z,2.70
2019-04-13T23:20:30.282Z,2.70
2019-04-13T23:23:02.792Z,2.70
2019-04-13T23:25:33.314Z,2.60
2019-04-13T23:28:03.866Z,2.60
2019-04-13T23:30:34.227Z,2.60
2019-04-13T23:33:06.284Z,2.60
2019-04-13T23:35:36.762Z,2.60
2019-04-13T23:38:07.103Z,2.60
2019-04-13T23:40:37.422Z,2.50
2019-04-13T23:43:10.265Z,2.50
2019-04-13T23:45:42.310Z,2.50
2019-04-13T23:48:13.289Z,2.50
2019-04-13T23:50:43.801Z,2.40
2019-04-13T23:53:14.121Z,2.40
2019-04-13T23:55:55.409Z,2.30
2019-04-13T23:58:51.659Z,2.30
